sensor_id;sensor_type;location;lat;lon;timestamp;P1;durP1;ratioP1;P2;durP2;ratioP2
24163;SDS011;12319;49.204;8.116;2023-03-01T00:01:21;6.38;;;2.80;;
24163;SDS011;12319;49.204;8.116;2023-03-01T00:03:50;7.43;;;3.28;;
24163;SDS011;12319;49.204;8.116;2023-03-01T00:06:16;7.03;;;3.57;;
24163;SDS011;12319;49.204;8.116;2023-03-01T00:08:42;5.72;;;2.60;;
24163;SDS011;12319;49.204;8.116;2023-03-01T00:11:16;5.68;;;2.55;;
24163;SDS011;12319;49.204;8.116;2023-03-01T00:13:44;6.70;;;3.20;;
24163;SDS011;12319;49.204;8.116;2023-03-01T00:16:11;4.97;;;2.30;;
24163;SDS011;12319;49.204;8.116;2023-03-01T00:18:44;4.70;;;2.40;;
24163;SDS011;12319;49.204;8.116;2023-03-01T00:21:10;5.13;;;2.70;;
24163;SDS011;12319;49.204;8.116;2023-03-01T00:23:37;5.00;;;2.43;;
24163;SDS011;12319;49.204;8.116;2023-03-01T00:26:05;4.30;;;1.92;;
24163;SDS011;12319;49.204;8.116;2023-03-01T00:28:32;6.57;;;2.90;;
24163;SDS011;12319;49.204;8.116;2023-03-01T00:31:02;6.83;;;3.20;;
24163;SDS011;12319;49.204;8.116;2023-03-01T00:33:32;8.90;;;3.38;;
24163;SDS011;12319;49.204;8.116;2023-03-01T00:35:58;5.38;;;2.83;;
24163;SDS011;12319;49.204;8.116;2023-03-01T00:38:24;5.07;;;2.50;;
24163;SDS011;12319;49.204;8.116;2023-03-01T00:40:49;7.10;;;3.17;;
24163;SDS011;12319;49.204;8.116;2023-03-01T00:43:15;7.30;;;3.30;;
24163;SDS011;12319;49.204;8.116;2023-03-01T00:45:40;6.93;;;3.10;;
24163;SDS011;12319;49.204;8.116;2023-03-01T00:48:06;5.20;;;2.60;;
24163;SDS011;12319;49.204;8.116;2023-03-01T00:50:31;5.70;;;2.50;;
24163;SDS011;12319;49.204;8.116;2023-03-01T00:52:57;5.77;;;2.73;;
24163;SDS011;12319;49.204;8.116;2023-03-01T00:55:23;7.18;;;3.45;;
24163;SDS011;12319;49.204;8.116;2023-03-01T00:57:49;5.63;;;2.70;;
24163;SDS011;12319;49.204;8.116;2023-03-01T01:00:15;8.57;;;3.40;;
24163;SDS011;12319;49.204;8.116;2023-03-01T01:02:40;6.63;;;3.20;;
24163;SDS011;12319;49.204;8.116;2023-03-01T01:05:06;6.93;;;3.08;;
24163;SDS011;12319;49.204;8.116;2023-03-01T01:07:32;6.50;;;3.40;;
24163;SDS011;12319;49.204;8.116;2023-03-01T01:09:58;9.97;;;4.37;;
24163;SDS011;12319;49.204;8.116;2023-03-01T01:12:23;8.32;;;3.70;;
24163;SDS011;12319;49.204;8.116;2023-03-01T01:14:49;5.80;;;2.63;;
24163;SDS011;12319;49.204;8.116;2023-03-01T01:17:14;8.03;;;3.00;;
24163;SDS011;12319;49.204;8.116;2023-03-01T01:19:40;7.07;;;3.67;;
24163;SDS011;12319;49.204;8.116;2023-03-01T01:22:05;6.50;;;2.60;;
24163;SDS011;12319;49.204;8.116;2023-03-01T01:24:31;6.83;;;3.10;;
24163;SDS011;12319;49.204;8.116;2023-03-01T01:26:57;10.57;;;4.38;;
24163;SDS011;12319;49.204;8.116;2023-03-01T01:29:22;7.07;;;3.43;;
24163;SDS011;12319;49.204;8.116;2023-03-01T01:31:48;7.90;;;3.50;;
24163;SDS011;12319;49.204;8.116;2023-03-01T01:34:22;7.25;;;2.88;;
24163;SDS011;12319;49.204;8.116;2023-03-01T01:36:52;9.50;;;2.90;;
24163;SDS011;12319;49.204;8.116;2023-03-01T01:39:19;5.65;;;2.45;;
24163;SDS011;12319;49.204;8.116;2023-03-01T01:41:48;6.72;;;2.88;;
24163;SDS011;12319;49.204;8.116;2023-03-01T01:52:18;7.80;;;3.00;;
24163;SDS011;12319;49.204;8.116;2023-03-01T01:54:49;9.85;;;4.60;;
24163;SDS011;12319;49.204;8.116;2023-03-01T01:57:20;8.10;;;3.30;;
24163;SDS011;12319;49.204;8.116;2023-03-01T01:59:51;6.57;;;3.03;;
24163;SDS011;12319;49.204;8.116;2023-03-01T02:02:19;7.47;;;3.42;;
24163;SDS011;12319;49.204;8.116;2023-03-01T02:04:46;7.43;;;3.17;;
24163;SDS011;12319;49.204;8.116;2023-03-01T02:07:15;6.95;;;3.15;;
24163;SDS011;12319;49.204;8.116;2023-03-01T02:09:45;5.60;;;2.97;;
24163;SDS011;12319;49.204;8.116;2023-03-01T02:12:16;5.43;;;2.58;;
24163;SDS011;12319;49.204;8.116;2023-03-01T02:14:44;6.20;;;2.55;;
24163;SDS011;12319;49.204;8.116;2023-03-01T02:17:11;7.72;;;3.88;;
24163;SDS011;12319;49.204;8.116;2023-03-01T02:20:27;7.05;;;3.38;;
24163;SDS011;12319;49.204;8.116;2023-03-01T02:22:32;6.45;;;3.33;;
24163;SDS011;12319;49.204;8.116;2023-03-01T02:28:08;6.10;;;2.42;;
24163;SDS011;12319;49.204;8.116;2023-03-01T02:30:40;5.07;;;2.50;;
24163;SDS011;12319;49.204;8.116;2023-03-01T02:33:27;4.47;;;2.22;;
24163;SDS011;12319;49.204;8.116;2023-03-01T02:35:57;5.18;;;2.35;;
24163;SDS011;12319;49.204;8.116;2023-03-01T02:38:25;5.63;;;2.40;;
24163;SDS011;12319;49.204;8.116;2023-03-01T02:40:52;6.18;;;2.90;;
24163;SDS011;12319;49.204;8.116;2023-03-01T02:43:22;7.10;;;2.90;;
24163;SDS011;12319;49.204;8.116;2023-03-01T02:45:51;6.50;;;2.78;;
24163;SDS011;12319;49.204;8.116;2023-03-01T02:48:18;8.07;;;3.13;;
24163;SDS011;12319;49.204;8.116;2023-03-01T02:56:18;6.97;;;3.20;;
24163;SDS011;12319;49.204;8.116;2023-03-01T02:58:44;7.50;;;3.42;;
24163;SDS011;12319;49.204;8.116;2023-03-01T03:01:12;5.93;;;2.97;;
24163;SDS011;12319;49.204;8.116;2023-03-01T03:03:40;6.93;;;3.03;;
24163;SDS011;12319;49.204;8.116;2023-03-01T03:06:06;6.57;;;3.08;;
24163;SDS011;12319;49.204;8.116;2023-03-01T03:08:31;6.57;;;3.28;;
24163;SDS011;12319;49.204;8.116;2023-03-01T03:10:57;7.70;;;3.60;;
24163;SDS011;12319;49.204;8.116;2023-03-01T03:13:22;6.45;;;3.08;;
24163;SDS011;12319;49.204;8.116;2023-03-01T03:15:53;7.40;;;3.57;;
24163;SDS011;12319;49.204;8.116;2023-03-01T03:18:20;6.05;;;2.70;;
24163;SDS011;12319;49.204;8.116;2023-03-01T03:20:46;8.50;;;3.22;;
24163;SDS011;12319;49.204;8.116;2023-03-01T03:23:11;8.00;;;3.60;;
24163;SDS011;12319;49.204;8.116;2023-03-01T03:25:37;6.50;;;3.10;;
24163;SDS011;12319;49.204;8.116;2023-03-01T03:28:03;6.28;;;3.03;;
24163;SDS011;12319;49.204;8.116;2023-03-01T03:30:34;6.78;;;3.00;;
24163;SDS011;12319;49.204;8.116;2023-03-01T03:33:03;5.70;;;2.90;;
24163;SDS011;12319;49.204;8.116;2023-03-01T03:35:46;5.18;;;2.50;;
24163;SDS011;12319;49.204;8.116;2023-03-01T03:38:13;6.22;;;2.88;;
24163;SDS011;12319;49.204;8.116;2023-03-01T03:40:43;5.60;;;2.90;;
24163;SDS011;12319;49.204;8.116;2023-03-01T03:43:15;6.57;;;3.13;;
24163;SDS011;12319;49.204;8.116;2023-03-01T03:45:43;7.38;;;3.60;;
24163;SDS011;12319;49.204;8.116;2023-03-01T03:48:10;8.18;;;4.43;;
24163;SDS011;12319;49.204;8.116;2023-03-01T03:50:36;6.88;;;3.25;;
24163;SDS011;12319;49.204;8.116;2023-03-01T03:53:04;7.60;;;3.17;;
24163;SDS011;12319;49.204;8.116;2023-03-01T03:55:31;8.70;;;4.28;;
24163;SDS011;12319;49.204;8.116;2023-03-01T03:57:59;6.40;;;3.20;;
24163;SDS011;12319;49.204;8.116;2023-03-01T04:00:31;6.38;;;3.08;;
24163;SDS011;12319;49.204;8.116;2023-03-01T04:03:01;5.75;;;2.75;;
24163;SDS011;12319;49.204;8.116;2023-03-01T04:05:27;4.63;;;2.40;;
24163;SDS011;12319;49.204;8.116;2023-03-01T04:07:53;6.10;;;2.53;;
24163;SDS011;12319;49.204;8.116;2023-03-01T04:10:44;7.68;;;3.10;;
24163;SDS011;12319;49.204;8.116;2023-03-01T04:13:13;7.88;;;3.47;;
24163;SDS011;12319;49.204;8.116;2023-03-01T04:15:41;7.22;;;3.50;;
24163;SDS011;12319;49.204;8.116;2023-03-01T04:18:08;7.97;;;3.30;;
24163;SDS011;12319;49.204;8.116;2023-03-01T04:20:36;6.82;;;3.03;;
24163;SDS011;12319;49.204;8.116;2023-03-01T04:23:06;8.80;;;3.50;;
24163;SDS011;12319;49.204;8.116;2023-03-01T04:28:23;7.28;;;3.40;;
24163;SDS011;12319;49.204;8.116;2023-03-01T04:31:02;7.43;;;3.28;;
24163;SDS011;12319;49.204;8.116;2023-03-01T04:33:41;6.18;;;2.72;;
24163;SDS011;12319;49.204;8.116;2023-03-01T04:36:16;6.45;;;3.17;;
24163;SDS011;12319;49.204;8.116;2023-03-01T04:38:43;6.23;;;2.70;;
24163;SDS011;12319;49.204;8.116;2023-03-01T04:41:12;6.90;;;3.15;;
24163;SDS011;12319;49.204;8.116;2023-03-01T04:43:39;10.65;;;4.85;;
24163;SDS011;12319;49.204;8.116;2023-03-01T04:46:07;8.00;;;2.90;;
24163;SDS011;12319;49.204;8.116;2023-03-01T04:48:36;11.88;;;4.38;;
24163;SDS011;12319;49.204;8.116;2023-03-01T04:51:02;8.45;;;3.90;;
24163;SDS011;12319;49.204;8.116;2023-03-01T04:53:29;7.55;;;3.58;;
24163;SDS011;12319;49.204;8.116;2023-03-01T04:55:55;7.28;;;3.30;;
24163;SDS011;12319;49.204;8.116;2023-03-01T04:58:25;5.47;;;2.90;;
24163;SDS011;12319;49.204;8.116;2023-03-01T05:00:52;6.75;;;3.00;;
24163;SDS011;12319;49.204;8.116;2023-03-01T05:03:18;7.35;;;3.38;;
24163;SDS011;12319;49.204;8.116;2023-03-01T05:05:45;7.82;;;3.38;;
24163;SDS011;12319;49.204;8.116;2023-03-01T05:08:12;7.57;;;2.95;;
24163;SDS011;12319;49.204;8.116;2023-03-01T05:10:46;8.13;;;3.40;;
24163;SDS011;12319;49.204;8.116;2023-03-01T05:13:14;6.47;;;3.03;;
24163;SDS011;12319;49.204;8.116;2023-03-01T05:15:46;7.53;;;3.45;;
24163;SDS011;12319;49.204;8.116;2023-03-01T05:18:13;6.30;;;3.10;;
24163;SDS011;12319;49.204;8.116;2023-03-01T05:20:39;6.47;;;3.10;;
24163;SDS011;12319;49.204;8.116;2023-03-01T05:23:05;7.90;;;3.30;;
24163;SDS011;12319;49.204;8.116;2023-03-01T05:25:31;6.93;;;3.42;;
24163;SDS011;12319;49.204;8.116;2023-03-01T05:27:59;7.75;;;3.55;;
24163;SDS011;12319;49.204;8.116;2023-03-01T05:30:29;8.80;;;3.53;;
24163;SDS011;12319;49.204;8.116;2023-03-01T05:32:58;9.30;;;4.35;;
24163;SDS011;12319;49.204;8.116;2023-03-01T05:35:24;8.48;;;3.88;;
24163;SDS011;12319;49.204;8.116;2023-03-01T05:37:51;9.70;;;4.77;;
24163;SDS011;12319;49.204;8.116;2023-03-01T05:40:21;10.02;;;4.45;;
24163;SDS011;12319;49.204;8.116;2023-03-01T05:42:49;9.60;;;3.90;;
24163;SDS011;12319;49.204;8.116;2023-03-01T05:45:18;8.77;;;3.78;;
24163;SDS011;12319;49.204;8.116;2023-03-01T05:47:44;7.63;;;3.73;;
24163;SDS011;12319;49.204;8.116;2023-03-01T05:50:12;7.50;;;3.65;;
24163;SDS011;12319;49.204;8.116;2023-03-01T05:52:39;7.97;;;3.53;;
24163;SDS011;12319;49.204;8.116;2023-03-01T05:55:05;9.77;;;4.10;;
24163;SDS011;12319;49.204;8.116;2023-03-01T05:57:31;8.60;;;3.60;;
24163;SDS011;12319;49.204;8.116;2023-03-01T05:59:57;12.70;;;4.90;;
24163;SDS011;12319;49.204;8.116;2023-03-01T06:02:22;9.90;;;4.38;;
24163;SDS011;12319;49.204;8.116;2023-03-01T06:04:48;9.17;;;4.23;;
24163;SDS011;12319;49.204;8.116;2023-03-01T06:07:13;8.70;;;3.60;;
24163;SDS011;12319;49.204;8.116;2023-03-01T06:09:39;8.55;;;3.50;;
24163;SDS011;12319;49.204;8.116;2023-03-01T06:12:04;9.73;;;4.33;;
24163;SDS011;12319;49.204;8.116;2023-03-01T06:14:30;8.02;;;3.70;;
24163;SDS011;12319;49.204;8.116;2023-03-01T06:16:56;6.83;;;2.97;;
24163;SDS011;12319;49.204;8.116;2023-03-01T06:19:23;6.88;;;3.05;;
24163;SDS011;12319;49.204;8.116;2023-03-01T06:21:48;7.23;;;3.50;;
24163;SDS011;12319;49.204;8.116;2023-03-01T06:24:14;8.07;;;3.67;;
24163;SDS011;12319;49.204;8.116;2023-03-01T06:26:39;6.47;;;3.17;;
24163;SDS011;12319;49.204;8.116;2023-03-01T06:29:05;5.97;;;3.00;;
24163;SDS011;12319;49.204;8.116;2023-03-01T06:31:30;7.43;;;3.37;;
24163;SDS011;12319;49.204;8.116;2023-03-01T06:33:56;9.48;;;4.22;;
24163;SDS011;12319;49.204;8.116;2023-03-01T06:36:21;9.00;;;4.00;;
24163;SDS011;12319;49.204;8.116;2023-03-01T06:38:47;8.43;;;4.10;;
24163;SDS011;12319;49.204;8.116;2023-03-01T06:41:12;8.40;;;3.60;;
24163;SDS011;12319;49.204;8.116;2023-03-01T06:43:38;10.80;;;4.57;;
24163;SDS011;12319;49.204;8.116;2023-03-01T06:46:04;9.33;;;4.50;;
24163;SDS011;12319;49.204;8.116;2023-03-01T06:48:30;8.55;;;3.90;;
24163;SDS011;12319;49.204;8.116;2023-03-01T06:50:57;10.83;;;4.63;;
24163;SDS011;12319;49.204;8.116;2023-03-01T06:53:23;10.10;;;4.25;;
24163;SDS011;12319;49.204;8.116;2023-03-01T06:55:53;7.90;;;3.60;;
24163;SDS011;12319;49.204;8.116;2023-03-01T06:58:19;6.90;;;3.03;;
24163;SDS011;12319;49.204;8.116;2023-03-01T07:00:45;10.48;;;4.57;;
24163;SDS011;12319;49.204;8.116;2023-03-01T07:03:10;7.60;;;3.03;;
24163;SDS011;12319;49.204;8.116;2023-03-01T07:05:36;6.90;;;3.23;;
24163;SDS011;12319;49.204;8.116;2023-03-01T07:08:01;5.63;;;2.70;;
24163;SDS011;12319;49.204;8.116;2023-03-01T07:10:27;6.45;;;2.97;;
24163;SDS011;12319;49.204;8.116;2023-03-01T07:12:56;9.73;;;3.30;;
24163;SDS011;12319;49.204;8.116;2023-03-01T07:15:23;8.02;;;3.88;;
24163;SDS011;12319;49.204;8.116;2023-03-01T07:17:49;9.23;;;4.28;;
24163;SDS011;12319;49.204;8.116;2023-03-01T07:20:16;8.57;;;3.73;;
24163;SDS011;12319;49.204;8.116;2023-03-01T07:22:42;8.35;;;3.45;;
24163;SDS011;12319;49.204;8.116;2023-03-01T07:25:08;9.07;;;4.00;;
24163;SDS011;12319;49.204;8.116;2023-03-01T07:27:35;7.72;;;3.75;;
24163;SDS011;12319;49.204;8.116;2023-03-01T07:30:01;8.07;;;3.80;;
24163;SDS011;12319;49.204;8.116;2023-03-01T07:32:28;7.78;;;3.50;;
24163;SDS011;12319;49.204;8.116;2023-03-01T07:34:53;7.57;;;3.53;;
24163;SDS011;12319;49.204;8.116;2023-03-01T07:37:19;7.63;;;3.13;;
24163;SDS011;12319;49.204;8.116;2023-03-01T07:39:44;9.82;;;4.03;;
24163;SDS011;12319;49.204;8.116;2023-03-01T07:42:10;9.60;;;4.20;;
24163;SDS011;12319;49.204;8.116;2023-03-01T07:44:35;8.27;;;3.80;;
24163;SDS011;12319;49.204;8.116;2023-03-01T07:47:01;10.43;;;4.35;;
24163;SDS011;12319;49.204;8.116;2023-03-01T07:49:27;8.60;;;3.93;;
24163;SDS011;12319;49.204;8.116;2023-03-01T07:51:53;7.10;;;3.90;;
24163;SDS011;12319;49.204;8.116;2023-03-01T07:54:18;8.53;;;3.90;;
24163;SDS011;12319;49.204;8.116;2023-03-01T07:56:44;8.63;;;3.33;;
24163;SDS011;12319;49.204;8.116;2023-03-01T07:59:09;8.13;;;4.10;;
24163;SDS011;12319;49.204;8.116;2023-03-01T08:01:35;11.13;;;4.80;;
24163;SDS011;12319;49.204;8.116;2023-03-01T08:04:00;9.20;;;3.83;;
24163;SDS011;12319;49.204;8.116;2023-03-01T08:06:26;10.00;;;4.55;;
24163;SDS011;12319;49.204;8.116;2023-03-01T08:08:52;8.45;;;3.70;;
24163;SDS011;12319;49.204;8.116;2023-03-01T08:11:20;11.20;;;5.40;;
24163;SDS011;12319;49.204;8.116;2023-03-01T08:13:47;9.90;;;5.20;;
24163;SDS011;12319;49.204;8.116;2023-03-01T08:16:14;9.50;;;4.88;;
24163;SDS011;12319;49.204;8.116;2023-03-01T08:18:40;8.52;;;3.88;;
24163;SDS011;12319;49.204;8.116;2023-03-01T08:21:10;8.68;;;4.57;;
24163;SDS011;12319;49.204;8.116;2023-03-01T08:23:38;9.33;;;5.07;;
24163;SDS011;12319;49.204;8.116;2023-03-01T08:26:11;9.05;;;5.43;;
24163;SDS011;12319;49.204;8.116;2023-03-01T08:28:41;9.90;;;5.43;;
24163;SDS011;12319;49.204;8.116;2023-03-01T08:33:39;9.00;;;5.57;;
24163;SDS011;12319;49.204;8.116;2023-03-01T08:36:05;9.88;;;6.13;;
24163;SDS011;12319;49.204;8.116;2023-03-01T08:38:31;8.85;;;5.38;;
24163;SDS011;12319;49.204;8.116;2023-03-01T08:41:01;8.80;;;5.80;;
24163;SDS011;12319;49.204;8.116;2023-03-01T08:43:28;10.40;;;6.47;;
24163;SDS011;12319;49.204;8.116;2023-03-01T08:45:54;9.98;;;5.70;;
24163;SDS011;12319;49.204;8.116;2023-03-01T08:48:19;8.27;;;5.07;;
24163;SDS011;12319;49.204;8.116;2023-03-01T08:50:45;8.95;;;5.78;;
24163;SDS011;12319;49.204;8.116;2023-03-01T08:53:10;8.57;;;5.00;;
24163;SDS011;12319;49.204;8.116;2023-03-01T08:55:36;8.90;;;6.27;;
24163;SDS011;12319;49.204;8.116;2023-03-01T08:58:01;9.93;;;5.80;;
24163;SDS011;12319;49.204;8.116;2023-03-01T09:00:27;8.00;;;5.60;;
24163;SDS011;12319;49.204;8.116;2023-03-01T09:02:52;8.93;;;5.87;;
24163;SDS011;12319;49.204;8.116;2023-03-01T09:05:18;9.23;;;5.80;;
24163;SDS011;12319;49.204;8.116;2023-03-01T09:07:43;9.77;;;6.20;;
24163;SDS011;12319;49.204;8.116;2023-03-01T09:10:09;9.10;;;5.53;;
24163;SDS011;12319;49.204;8.116;2023-03-01T09:12:35;8.65;;;5.35;;
24163;SDS011;12319;49.204;8.116;2023-03-01T09:15:00;8.47;;;5.30;;
24163;SDS011;12319;49.204;8.116;2023-03-01T09:17:26;7.93;;;5.00;;
24163;SDS011;12319;49.204;8.116;2023-03-01T09:19:52;9.67;;;6.77;;
24163;SDS011;12319;49.204;8.116;2023-03-01T09:22:17;8.03;;;5.30;;
24163;SDS011;12319;49.204;8.116;2023-03-01T09:24:42;11.43;;;7.13;;
24163;SDS011;12319;49.204;8.116;2023-03-01T09:27:08;8.43;;;5.43;;
24163;SDS011;12319;49.204;8.116;2023-03-01T09:29:35;11.32;;;5.22;;
24163;SDS011;12319;49.204;8.116;2023-03-01T09:32:01;11.23;;;6.13;;
24163;SDS011;12319;49.204;8.116;2023-03-01T09:34:27;8.30;;;5.28;;
24163;SDS011;12319;49.204;8.116;2023-03-01T09:36:53;9.80;;;5.60;;
24163;SDS011;12319;49.204;8.116;2023-03-01T09:39:18;8.38;;;5.32;;
24163;SDS011;12319;49.204;8.116;2023-03-01T09:44:38;9.00;;;5.90;;
24163;SDS011;12319;49.204;8.116;2023-03-01T09:47:12;10.40;;;6.65;;
24163;SDS011;12319;49.204;8.116;2023-03-01T09:50:03;9.20;;;5.38;;
24163;SDS011;12319;49.204;8.116;2023-03-01T09:55:13;11.00;;;6.33;;
24163;SDS011;12319;49.204;8.116;2023-03-01T09:57:54;10.88;;;6.70;;
24163;SDS011;12319;49.204;8.116;2023-03-01T10:05:37;11.25;;;5.68;;
24163;SDS011;12319;49.204;8.116;2023-03-01T10:11:45;13.15;;;7.40;;
24163;SDS011;12319;49.204;8.116;2023-03-01T10:14:27;9.70;;;5.80;;
24163;SDS011;12319;49.204;8.116;2023-03-01T10:17:03;9.03;;;5.23;;
24163;SDS011;12319;49.204;8.116;2023-03-01T10:19:48;9.82;;;5.38;;
24163;SDS011;12319;49.204;8.116;2023-03-01T10:22:27;9.95;;;5.63;;
24163;SDS011;12319;49.204;8.116;2023-03-01T10:24:54;9.55;;;5.00;;
24163;SDS011;12319;49.204;8.116;2023-03-01T10:27:23;10.85;;;5.30;;
24163;SDS011;12319;49.204;8.116;2023-03-01T10:30:13;9.15;;;4.43;;
24163;SDS011;12319;49.204;8.116;2023-03-01T10:32:58;7.90;;;4.50;;
24163;SDS011;12319;49.204;8.116;2023-03-01T10:35:25;10.53;;;5.30;;
24163;SDS011;12319;49.204;8.116;2023-03-01T10:38:04;8.70;;;4.93;;
24163;SDS011;12319;49.204;8.116;2023-03-01T10:40:32;7.32;;;3.88;;
24163;SDS011;12319;49.204;8.116;2023-03-01T10:43:00;9.57;;;4.78;;
24163;SDS011;12319;49.204;8.116;2023-03-01T10:45:32;10.30;;;4.67;;
24163;SDS011;12319;49.204;8.116;2023-03-01T10:48:04;9.32;;;4.70;;
24163;SDS011;12319;49.204;8.116;2023-03-01T10:50:45;12.70;;;5.65;;
24163;SDS011;12319;49.204;8.116;2023-03-01T10:53:22;13.32;;;6.10;;
24163;SDS011;12319;49.204;8.116;2023-03-01T10:56:06;10.88;;;5.32;;
24163;SDS011;12319;49.204;8.116;2023-03-01T10:58:33;10.87;;;5.20;;
24163;SDS011;12319;49.204;8.116;2023-03-01T11:01:04;10.38;;;5.13;;
24163;SDS011;12319;49.204;8.116;2023-03-01T11:03:31;9.65;;;5.07;;
24163;SDS011;12319;49.204;8.116;2023-03-01T11:08:38;8.55;;;4.20;;
24163;SDS011;12319;49.204;8.116;2023-03-01T11:11:16;8.20;;;3.53;;
24163;SDS011;12319;49.204;8.116;2023-03-01T11:24:24;10.27;;;5.50;;
24163;SDS011;12319;49.204;8.116;2023-03-01T11:26:57;12.60;;;6.35;;
24163;SDS011;12319;49.204;8.116;2023-03-01T11:29:30;11.02;;;5.65;;
24163;SDS011;12319;49.204;8.116;2023-03-01T11:32:02;12.43;;;5.85;;
24163;SDS011;12319;49.204;8.116;2023-03-01T11:37:57;14.33;;;6.63;;
24163;SDS011;12319;49.204;8.116;2023-03-01T11:40:31;10.15;;;4.85;;
24163;SDS011;12319;49.204;8.116;2023-03-01T11:45:45;7.07;;;3.80;;
24163;SDS011;12319;49.204;8.116;2023-03-01T11:54:33;10.65;;;5.13;;
24163;SDS011;12319;49.204;8.116;2023-03-01T12:00:07;9.95;;;4.82;;
24163;SDS011;12319;49.204;8.116;2023-03-01T12:02:59;11.10;;;5.05;;
24163;SDS011;12319;49.204;8.116;2023-03-01T12:08:28;10.90;;;4.30;;
24163;SDS011;12319;49.204;8.116;2023-03-01T12:19:31;9.13;;;3.60;;
24163;SDS011;12319;49.204;8.116;2023-03-01T12:25:16;11.20;;;6.10;;
24163;SDS011;12319;49.204;8.116;2023-03-01T12:36:24;11.23;;;5.10;;
24163;SDS011;12319;49.204;8.116;2023-03-01T12:42:07;8.57;;;4.35;;
24163;SDS011;12319;49.204;8.116;2023-03-01T12:45:01;9.40;;;4.80;;
24163;SDS011;12319;49.204;8.116;2023-03-01T12:48:03;9.03;;;4.20;;
24163;SDS011;12319;49.204;8.116;2023-03-01T12:50:46;7.88;;;3.97;;
24163;SDS011;12319;49.204;8.116;2023-03-01T12:53:27;14.13;;;7.43;;
24163;SDS011;12319;49.204;8.116;2023-03-01T12:56:00;11.48;;;5.75;;
24163;SDS011;12319;49.204;8.116;2023-03-01T12:58:32;9.57;;;4.82;;
24163;SDS011;12319;49.204;8.116;2023-03-01T13:06:21;9.82;;;5.32;;
24163;SDS011;12319;49.204;8.116;2023-03-01T13:09:30;7.47;;;4.03;;
24163;SDS011;12319;49.204;8.116;2023-03-01T13:12:04;12.27;;;7.13;;
24163;SDS011;12319;49.204;8.116;2023-03-01T13:17:47;9.40;;;4.63;;
24163;SDS011;12319;49.204;8.116;2023-03-01T13:20:26;9.85;;;5.35;;
24163;SDS011;12319;49.204;8.116;2023-03-01T13:28:46;8.47;;;4.63;;
24163;SDS011;12319;49.204;8.116;2023-03-01T13:46:58;9.48;;;5.25;;
24163;SDS011;12319;49.204;8.116;2023-03-01T13:49:29;10.77;;;5.05;;
24163;SDS011;12319;49.204;8.116;2023-03-01T13:52:58;8.18;;;3.85;;
24163;SDS011;12319;49.204;8.116;2023-03-01T13:55:31;10.75;;;5.30;;
24163;SDS011;12319;49.204;8.116;2023-03-01T13:57:57;9.40;;;4.60;;
24163;SDS011;12319;49.204;8.116;2023-03-01T14:00:27;9.00;;;3.92;;
24163;SDS011;12319;49.204;8.116;2023-03-01T14:05:27;8.00;;;4.20;;
24163;SDS011;12319;49.204;8.116;2023-03-01T14:07:53;10.00;;;4.68;;
24163;SDS011;12319;49.204;8.116;2023-03-01T14:10:19;7.37;;;3.70;;
24163;SDS011;12319;49.204;8.116;2023-03-01T14:12:47;12.43;;;5.80;;
24163;SDS011;12319;49.204;8.116;2023-03-01T14:18:04;10.57;;;4.22;;
24163;SDS011;12319;49.204;8.116;2023-03-01T14:21:08;7.43;;;3.80;;
24163;SDS011;12319;49.204;8.116;2023-03-01T14:23:34;8.93;;;4.18;;
24163;SDS011;12319;49.204;8.116;2023-03-01T14:26:03;8.57;;;4.57;;
24163;SDS011;12319;49.204;8.116;2023-03-01T14:28:31;10.48;;;4.82;;
24163;SDS011;12319;49.204;8.116;2023-03-01T14:31:02;8.43;;;3.90;;
24163;SDS011;12319;49.204;8.116;2023-03-01T14:33:31;10.53;;;5.83;;
24163;SDS011;12319;49.204;8.116;2023-03-01T14:36:09;10.35;;;4.50;;
24163;SDS011;12319;49.204;8.116;2023-03-01T14:38:37;7.93;;;4.00;;
24163;SDS011;12319;49.204;8.116;2023-03-01T14:41:09;7.78;;;3.97;;
24163;SDS011;12319;49.204;8.116;2023-03-01T14:43:38;8.48;;;3.72;;
24163;SDS011;12319;49.204;8.116;2023-03-01T14:46:16;8.43;;;3.72;;
24163;SDS011;12319;49.204;8.116;2023-03-01T14:48:44;8.63;;;3.83;;
24163;SDS011;12319;49.204;8.116;2023-03-01T14:51:10;10.80;;;4.90;;
24163;SDS011;12319;49.204;8.116;2023-03-01T14:53:37;9.25;;;4.22;;
24163;SDS011;12319;49.204;8.116;2023-03-01T14:56:02;12.95;;;6.88;;
24163;SDS011;12319;49.204;8.116;2023-03-01T14:58:28;10.20;;;4.63;;
24163;SDS011;12319;49.204;8.116;2023-03-01T15:00:57;7.95;;;3.72;;
24163;SDS011;12319;49.204;8.116;2023-03-01T15:06:00;8.23;;;4.10;;
24163;SDS011;12319;49.204;8.116;2023-03-01T15:08:26;7.47;;;3.70;;
24163;SDS011;12319;49.204;8.116;2023-03-01T15:13:38;8.77;;;4.30;;
24163;SDS011;12319;49.204;8.116;2023-03-01T15:18:37;8.70;;;4.53;;
24163;SDS011;12319;49.204;8.116;2023-03-01T15:21:09;11.57;;;4.60;;
24163;SDS011;12319;49.204;8.116;2023-03-01T15:23:51;7.85;;;3.85;;
24163;SDS011;12319;49.204;8.116;2023-03-01T15:26:23;14.13;;;6.60;;
24163;SDS011;12319;49.204;8.116;2023-03-01T15:28:54;8.27;;;3.83;;
24163;SDS011;12319;49.204;8.116;2023-03-01T15:31:26;11.20;;;5.57;;
24163;SDS011;12319;49.204;8.116;2023-03-01T15:34:07;8.05;;;3.88;;
24163;SDS011;12319;49.204;8.116;2023-03-01T15:36:44;8.40;;;4.00;;
24163;SDS011;12319;49.204;8.116;2023-03-01T15:42:09;7.72;;;3.53;;
24163;SDS011;12319;49.204;8.116;2023-03-01T15:44:36;8.80;;;4.00;;
24163;SDS011;12319;49.204;8.116;2023-03-01T15:47:26;7.15;;;3.33;;
24163;SDS011;12319;49.204;8.116;2023-03-01T15:49:54;10.50;;;3.97;;
24163;SDS011;12319;49.204;8.116;2023-03-01T15:52:25;7.35;;;3.47;;
24163;SDS011;12319;49.204;8.116;2023-03-01T15:54:57;7.75;;;3.42;;
24163;SDS011;12319;49.204;8.116;2023-03-01T15:57:30;6.67;;;3.00;;
24163;SDS011;12319;49.204;8.116;2023-03-01T15:59:55;7.88;;;2.80;;
24163;SDS011;12319;49.204;8.116;2023-03-01T16:02:22;7.00;;;3.30;;
24163;SDS011;12319;49.204;8.116;2023-03-01T16:04:48;7.30;;;2.65;;
24163;SDS011;12319;49.204;8.116;2023-03-01T16:07:14;7.50;;;3.33;;
24163;SDS011;12319;49.204;8.116;2023-03-01T16:09:40;9.10;;;3.65;;
24163;SDS011;12319;49.204;8.116;2023-03-01T16:12:08;6.18;;;2.75;;
24163;SDS011;12319;49.204;8.116;2023-03-01T16:14:38;6.60;;;3.30;;
24163;SDS011;12319;49.204;8.116;2023-03-01T16:17:04;8.90;;;3.33;;
24163;SDS011;12319;49.204;8.116;2023-03-01T16:19:30;7.40;;;3.00;;
24163;SDS011;12319;49.204;8.116;2023-03-01T16:21:55;6.78;;;3.25;;
24163;SDS011;12319;49.204;8.116;2023-03-01T16:24:21;6.47;;;3.20;;
24163;SDS011;12319;49.204;8.116;2023-03-01T16:26:46;6.85;;;3.45;;
24163;SDS011;12319;49.204;8.116;2023-03-01T16:29:12;5.90;;;2.77;;
24163;SDS011;12319;49.204;8.116;2023-03-01T16:31:37;6.27;;;2.73;;
24163;SDS011;12319;49.204;8.116;2023-03-01T16:34:03;7.40;;;3.28;;
24163;SDS011;12319;49.204;8.116;2023-03-01T16:36:29;6.10;;;2.87;;
24163;SDS011;12319;49.204;8.116;2023-03-01T16:38:57;8.05;;;3.58;;
24163;SDS011;12319;49.204;8.116;2023-03-01T16:41:25;6.82;;;2.85;;
24163;SDS011;12319;49.204;8.116;2023-03-01T16:43:51;7.20;;;2.80;;
24163;SDS011;12319;49.204;8.116;2023-03-01T16:46:18;6.67;;;2.90;;
24163;SDS011;12319;49.204;8.116;2023-03-01T16:48:46;8.30;;;3.00;;
24163;SDS011;12319;49.204;8.116;2023-03-01T16:51:13;5.80;;;2.67;;
24163;SDS011;12319;49.204;8.116;2023-03-01T16:53:38;6.90;;;3.17;;
24163;SDS011;12319;49.204;8.116;2023-03-01T16:56:05;7.77;;;3.40;;
24163;SDS011;12319;49.204;8.116;2023-03-01T16:58:32;6.00;;;3.05;;
24163;SDS011;12319;49.204;8.116;2023-03-01T17:01:03;5.78;;;2.55;;
24163;SDS011;12319;49.204;8.116;2023-03-01T17:03:30;5.47;;;2.45;;
24163;SDS011;12319;49.204;8.116;2023-03-01T17:05:56;6.07;;;2.77;;
24163;SDS011;12319;49.204;8.116;2023-03-01T17:08:21;6.60;;;2.80;;
24163;SDS011;12319;49.204;8.116;2023-03-01T17:10:47;6.05;;;2.85;;
24163;SDS011;12319;49.204;8.116;2023-03-01T17:13:12;5.37;;;2.43;;
24163;SDS011;12319;49.204;8.116;2023-03-01T17:15:40;6.30;;;2.50;;